Rechercher aéroport 
image banner adimage banner ad
image banner ad

EVRS - Spilve

Situé à Riga, Latvia

ICAO - EVRS, IATA -

Données fournies par Airmate  

Information générale

Coordonnées: N56°59'31" E24°4'28"
Élévation : 5 feet MSL.
Variation magnétique : 7° East
Voir autres Aéroports à Riga (city)

Données opérationnelles

Accessible au public
Heure actuelle UTC:
Heure actuelle locale:
Météo à : EVRA - Riga ( 10 km )
METAR: EVRA 281420Z 16008KT CAVOK 11/08 Q1012 R18/190095 NOSIG
TAF: TAF EVRA 281101Z 2812/2912 17007KT 9999 SCT008 SCT015 TEMPO 2900/2903 BKN012 OVC020 TEMPO 2903/2909 4000 RA BR BKN005 OVC015
Voir NOTAMs / SUP AIP / TFR affectant cet aéroport [VIEW]
Fréquences de communication: [VIEW]

Pistes:

Identifiant RWYQFULongueur (ft)Largeur (ft)SurfaceLDA (ft)
14148°328175ASPH3281
32328°328175ASPH3281

Coordonnées de l'aéroport

Adresse: Riga Latvia

Autres services d'aviation

Clubs d'aviation (sans but lucratif)

Aeroklubs Delta

Aeroklubs Delta

Latvijas Paraplanierisma Federācija

Latvijas Paraplanierisma Federācija
info@paragliding.lv+37167809110
+37167809110

Vue satellite de EVRS